M I D A S
Marine Information and Data Acquisition System
Tripno 2107 of the Zeeleeuw from 2011-05-23 06:25:37 to 2011-05-23 16:36:08
Back to CruiseResearch ActivitiesStationsMapUnderway DataData graphs

EquipmentUnitsComment
TimeDGPSUTC
LatitudeDGPSDM.mWGS84
LongitudeDGPSDM.mWGS84
HeadingGyrodeg 
SOGDGPSknotsSpeed over ground
COGDGPSdegCourse over ground
DepthEcho soundermeters200 kHz
Missing or incorrect values are displayed as -999
Navigation data collected by the RV Zeeleeuw from 2011-05-23 06:20:28 to 2011-05-23 16:52:40
                                                                                    Next 1000 lines
Time Latitude Longitude Heading SOG COG Depth
2011-05-23 06:20:38 51°13.637 2°56.01 112.2 1.8 285 -999
2011-05-23 06:20:43 51°13.638 2°56.005 112.2 2.5 290 9.7
2011-05-23 06:20:48 51°13.64 2°55.998 112.8 3.1 290 -999
2011-05-23 06:20:53 51°13.642 2°55.991 113.5 3.6 294 -999
2011-05-23 06:20:59 51°13.644 2°55.982 114.8 4 294 -999
2011-05-23 06:21:05 51°13.647 2°55.972 115 4.3 296 -999
2011-05-23 06:21:10 51°13.65 2°55.962 115 4.6 296 -999
2011-05-23 06:21:16 51°13.654 2°55.951 115 4.9 296 -999
2011-05-23 06:21:21 51°13.657 2°55.941 115.5 4.9 296 -999
2011-05-23 06:21:26 51°13.66 2°55.931 115.6 5 296 -999
2011-05-23 06:21:31 51°13.662 2°55.921 115.6 5 295 -999
2011-05-23 06:21:36 51°13.665 2°55.912 115.1 4.9 295 -999
2011-05-23 06:21:41 51°13.668 2°55.902 114.7 4.8 295 -999
2011-05-23 06:21:46 51°13.671 2°55.892 114 4.7 295 -999
2011-05-23 06:21:51 51°13.673 2°55.883 113.3 4.6 294 -999
2011-05-23 06:21:56 51°13.676 2°55.874 112.6 4.4 294 -999
2011-05-23 06:22:01 51°13.678 2°55.865 111.8 4.3 293 -999
2011-05-23 06:22:05 51°13.68 2°55.859 110.6 4.2 293 -999
2011-05-23 06:22:11 51°13.682 2°55.848 109.4 4 291 -999
2011-05-23 06:22:16 51°13.684 2°55.841 108.2 3.9 290 11.3
2011-05-23 06:22:21 51°13.686 2°55.833 106.6 3.7 289 -999
2011-05-23 06:22:25 51°13.687 2°55.827 105.1 3.6 289 11.6
2011-05-23 06:22:30 51°13.689 2°55.819 103.7 3.5 286 11.8
2011-05-23 06:22:35 51°13.69 2°55.812 101.8 3.5 286 12.4
2011-05-23 06:22:40 51°13.691 2°55.805 100.2 3.4 284 12.8
2011-05-23 06:22:45 51°13.692 2°55.797 98.1 3.3 283 13.2
2011-05-23 06:22:49 51°13.693 2°55.792 95.7 3.3 283 13.5
2011-05-23 06:22:54 51°13.694 2°55.785 94 3.2 281 13.6
2011-05-23 06:22:59 51°13.694 2°55.779 91.6 3 279 -999
2011-05-23 06:23:04 51°13.695 2°55.772 89.4 2.9 277 13.8
2011-05-23 06:23:09 51°13.695 2°55.766 87 2.8 275 -999
2011-05-23 06:23:13 51°13.695 2°55.761 85 2.7 272 13.9
2011-05-23 06:23:18 51°13.695 2°55.755 82.2 2.6 271 13.8
2011-05-23 06:23:23 51°13.695 2°55.75 79 2.4 269 13.8
2011-05-23 06:23:28 51°13.695 2°55.745 77 2.1 266 13.8
2011-05-23 06:23:33 51°13.695 2°55.741 74.6 1.9 263 13.9
2011-05-23 06:23:37 51°13.695 2°55.738 71.2 1.5 264 13.7
2011-05-23 06:23:42 51°13.694 2°55.736 68.9 1.2 261 13.8
2011-05-23 06:23:48 51°13.694 2°55.733 64.8 0.9 263 13.8
2011-05-23 06:23:52 51°13.694 2°55.732 62.2 0.7 265 13.9
2011-05-23 06:23:57 51°13.694 2°55.731 59 0.5 289 14
2011-05-23 06:24:02 51°13.694 2°55.73 56 0.4 290 14
2011-05-23 06:24:08 51°13.695 2°55.729 52.4 0.3 304 14.1
2011-05-23 06:24:12 51°13.695 2°55.729 49.4 0.3 331 14.1
2011-05-23 06:24:17 51°13.695 2°55.729 46.8 0.4 353 14.1
2011-05-23 06:24:22 51°13.696 2°55.729 43.6 0.5 3 14.2
2011-05-23 06:24:28 51°13.697 2°55.729 39.5 0.6 8 14.2
2011-05-23 06:24:33 51°13.698 2°55.73 36.6 0.8 7 14.1
2011-05-23 06:24:37 51°13.699 2°55.73 32.1 0.9 10 14.1
2011-05-23 06:24:42 51°13.701 2°55.73 29 1.1 6 14.2
2011-05-23 06:24:47 51°13.703 2°55.73 24.9 1.3 5 14.3
2011-05-23 06:24:53 51°13.705 2°55.731 20.9 1.6 4 14.5
2011-05-23 06:24:57 51°13.707 2°55.731 15 1.9 -999 14.4
2011-05-23 06:25:02 51°13.71 2°55.73 10.2 2.1 356 14
2011-05-23 06:25:07 51°13.713 2°55.73 2.9 2.3 350 13.8
2011-05-23 06:25:12 51°13.716 2°55.728 357.9 2.6 347 14
2011-05-23 06:25:17 51°13.72 2°55.727 352 2.7 345 13.9
2011-05-23 06:25:22 51°13.724 2°55.725 346.2 3.1 339 13.9
2011-05-23 06:25:27 51°13.729 2°55.722 341.1 3.5 338 13.6
2011-05-23 06:25:32 51°13.733 2°55.718 338.3 3.9 334 13.5
2011-05-23 06:25:37 51°13.738 2°55.714 336 4.1 333 13.5
2011-05-23 06:25:42 51°13.744 2°55.709 334.2 4.5 330 13.4
2011-05-23 06:25:47 51°13.75 2°55.704 332.2 4.8 328 13.1
2011-05-23 06:25:52 51°13.755 2°55.698 331.1 5.1 326 13
2011-05-23 06:25:57 51°13.761 2°55.691 330 5.3 327 13
2011-05-23 06:26:02 51°13.768 2°55.684 329.8 5.5 327 13.1
2011-05-23 06:26:08 51°13.776 2°55.677 330.9 5.7 329 13.1
2011-05-23 06:26:12 51°13.782 2°55.671 332.4 5.9 330 13.1
2011-05-23 06:26:17 51°13.789 2°55.665 333.8 6.1 331 13.1
2011-05-23 06:26:22 51°13.797 2°55.658 334.7 6.3 331 13
2011-05-23 06:26:28 51°13.806 2°55.65 335.4 6.5 333 13.1
2011-05-23 06:26:32 51°13.813 2°55.644 335.7 6.8 332 13
2011-05-23 06:26:37 51°13.822 2°55.637 336.1 7 334 12.9
2011-05-23 06:26:42 51°13.831 2°55.631 336.8 7.4 334 12.8
2011-05-23 06:26:47 51°13.84 2°55.623 337.2 7.6 336 12.8
2011-05-23 06:26:53 51°13.852 2°55.615 338 7.8 336 12.6
2011-05-23 06:26:57 51°13.86 2°55.61 338.7 8 337 12.7
2011-05-23 06:27:02 51°13.871 2°55.603 339 8.2 337 12.8
2011-05-23 06:27:07 51°13.881 2°55.595 339.1 8.4 337 12.8
2011-05-23 06:27:13 51°13.895 2°55.586 339 8.6 336 12.8
2011-05-23 06:27:17 51°13.903 2°55.58 338.9 8.7 337 12.7
2011-05-23 06:27:22 51°13.915 2°55.573 339 8.8 338 12.7
2011-05-23 06:27:27 51°13.926 2°55.566 339.7 8.9 338 12.6
2011-05-23 06:27:32 51°13.938 2°55.558 340 9 338 12.7
2011-05-23 06:27:37 51°13.949 2°55.55 339.7 9.1 337 12.7
2011-05-23 06:27:42 51°13.961 2°55.542 338.9 9.2 336 12.6
2011-05-23 06:27:47 51°13.973 2°55.533 338.3 9.3 335 12.6
2011-05-23 06:27:52 51°13.985 2°55.525 337.7 9.4 335 12.6
2011-05-23 06:27:57 51°13.997 2°55.516 337.6 9.5 335 -999
2011-05-23 06:28:02 51°14.009 2°55.507 337.6 9.6 336 12.5
2011-05-23 06:28:08 51°14.023 2°55.497 337.8 9.6 336 -999
2011-05-23 06:28:13 51°14.036 2°55.488 338 9.7 336 12.4
2011-05-23 06:28:18 51°14.048 2°55.479 338.2 9.8 336 12.4
2011-05-23 06:28:23 51°14.06 2°55.47 338 9.8 336 12.4
2011-05-23 06:28:28 51°14.073 2°55.461 337.9 9.8 336 12.4
2011-05-23 06:28:33 51°14.085 2°55.452 337.9 9.8 336 12.4
2011-05-23 06:28:38 51°14.098 2°55.443 337.9 9.8 336 12.3
2011-05-23 06:28:43 51°14.11 2°55.435 338.3 9.8 337 12.2
2011-05-23 06:28:48 51°14.123 2°55.426 339.6 9.8 337 12.2
2011-05-23 06:28:53 51°14.135 2°55.418 339.9 9.9 337 12.2
2011-05-23 06:28:57 51°14.145 2°55.411 339.5 9.9 336 12.1
2011-05-23 06:29:02 51°14.158 2°55.402 339.4 9.9 336 -999
2011-05-23 06:29:07 51°14.171 2°55.393 339 9.9 335 12.2
2011-05-23 06:29:13 51°14.185 2°55.382 338.3 10 334 12.2
2011-05-23 06:29:17 51°14.196 2°55.374 337.4 10 334 12.2
2011-05-23 06:29:22 51°14.208 2°55.364 336.7 10.1 334 12.2
2011-05-23 06:29:27 51°14.221 2°55.353 336.1 10.1 332 12.2
2011-05-23 06:29:32 51°14.233 2°55.343 335 10.1 331 12.2
2011-05-23 06:29:37 51°14.245 2°55.331 333.2 10.2 329 12.1
2011-05-23 06:29:43 51°14.26 2°55.317 331.8 10.3 328 12.3
2011-05-23 06:29:48 51°14.272 2°55.305 331.2 10.4 328 12.1
2011-05-23 06:29:53 51°14.284 2°55.293 330.4 10.5 327 -999
2011-05-23 06:29:58 51°14.296 2°55.279 329.1 10.6 326 -999
2011-05-23 06:30:03 51°14.308 2°55.266 328.3 10.7 326 -999
2011-05-23 06:30:09 51°14.323 2°55.25 328 10.8 326 -999
2011-05-23 06:30:14 51°14.336 2°55.237 328.2 10.8 327 12.1
2011-05-23 06:30:19 51°14.349 2°55.224 329.2 10.9 328 -999
2011-05-23 06:30:25 51°14.364 2°55.208 329.2 11 326 12
2011-05-23 06:30:29 51°14.374 2°55.197 328.4 11.1 326 -999
2011-05-23 06:30:35 51°14.389 2°55.18 327.6 11.2 325 -999
2011-05-23 06:30:40 51°14.402 2°55.166 327.5 11.3 325 12.3
2011-05-23 06:30:45 51°14.415 2°55.151 328.1 11.6 324 12.1
2011-05-23 06:30:50 51°14.428 2°55.136 327 11.8 324 -999
2011-05-23 06:30:55 51°14.442 2°55.121 326.8 11.9 326 12.1
2011-05-23 06:31:01 51°14.459 2°55.104 327.9 12 327 -999
2011-05-23 06:31:05 51°14.471 2°55.093 329.3 12.1 330 12.3
2011-05-23 06:31:10 51°14.486 2°55.08 332.1 12.3 331 -999
2011-05-23 06:31:15 51°14.501 2°55.067 334.2 12.4 332 -999
2011-05-23 06:31:20 51°14.516 2°55.054 334.7 12.5 330 12.7
2011-05-23 06:31:25 51°14.531 2°55.04 334.3 12.6 331 13.1
2011-05-23 06:31:29 51°14.544 2°55.029 334.2 12.7 330 13.4
2011-05-23 06:31:34 51°14.559 2°55.015 333.2 12.8 331 13.5
2011-05-23 06:31:39 51°14.575 2°55.002 333 12.9 332 13.8
2011-05-23 06:31:44 51°14.591 2°54.99 333.8 12.9 334 13.4
2011-05-23 06:31:49 51°14.607 2°54.978 335.6 13 337 13.3
2011-05-23 06:31:53 51°14.621 2°54.97 338.1 13 339 13.5
2011-05-23 06:31:58 51°14.638 2°54.96 340.4 13.1 340 13.2
2011-05-23 06:32:03 51°14.655 2°54.95 341.2 13.2 341 13
2011-05-23 06:32:08 51°14.672 2°54.942 342.3 13.2 342 12.9
2011-05-23 06:32:13 51°14.69 2°54.933 342.9 13.2 343 12.5
2011-05-23 06:32:17 51°14.704 2°54.927 343.7 13.2 344 11.8
2011-05-23 06:32:21 51°14.718 2°54.92 344.1 13.3 345 11.6
2011-05-23 06:32:27 51°14.74 2°54.911 344.2 13.4 345 11.7
2011-05-23 06:32:32 51°14.758 2°54.904 344.8 13.4 346 11.6
2011-05-23 06:32:37 51°14.776 2°54.896 344.8 13.5 345 11.6
2011-05-23 06:32:42 51°14.794 2°54.889 344.2 13.4 345 11.6
2011-05-23 06:32:47 51°14.812 2°54.881 343.4 13.4 344 11.5
2011-05-23 06:32:52 51°14.83 2°54.873 342.7 13.4 343 11.4
2011-05-23 06:32:57 51°14.847 2°54.864 341.6 13.4 343 11.6
2011-05-23 06:33:02 51°14.865 2°54.855 340.9 13.4 342 11.5
2011-05-23 06:33:08 51°14.886 2°54.844 340.6 13.4 342 11.5
2011-05-23 06:33:12 51°14.9 2°54.836 340.3 13.3 342 10.9
2011-05-23 06:33:17 51°14.918 2°54.827 340.1 13.3 342 11.1
2011-05-23 06:33:22 51°14.935 2°54.818 340.5 13.3 343 11.4
2011-05-23 06:33:27 51°14.953 2°54.809 340.8 13.3 343 11
2011-05-23 06:33:33 51°14.974 2°54.799 341.2 13.3 344 11.1
2011-05-23 06:33:37 51°14.988 2°54.793 341.7 13.4 344 11.1
2011-05-23 06:33:42 51°15.006 2°54.785 342.1 13.4 344 10.9
2011-05-23 06:33:47 51°15.024 2°54.777 342.5 13.4 344 10.9
2011-05-23 06:33:52 51°15.042 2°54.768 342.2 13.4 344 10.8
2011-05-23 06:33:57 51°15.06 2°54.76 341.8 13.4 343 10.7
2011-05-23 06:34:02 51°15.078 2°54.751 341.8 13.3 343 10.3
2011-05-23 06:34:07 51°15.096 2°54.743 341.8 13.3 343 10.3
2011-05-23 06:34:12 51°15.113 2°54.735 341.8 13.3 344 10.1
2011-05-23 06:34:17 51°15.131 2°54.726 342 13.3 343 10.2
2011-05-23 06:34:22 51°15.149 2°54.717 341.9 13.4 343 10.3
2011-05-23 06:34:27 51°15.166 2°54.709 341.7 13.4 344 10.1
2011-05-23 06:34:32 51°15.184 2°54.701 342 13.4 345 10.2
2011-05-23 06:34:37 51°15.202 2°54.694 343.5 13.4 346 10.3
2011-05-23 06:34:42 51°15.221 2°54.688 345.1 13.5 348 10.6
2011-05-23 06:34:47 51°15.239 2°54.681 346 13.5 348 10.5
2011-05-23 06:34:52 51°15.257 2°54.675 346.5 13.5 349 10.6
2011-05-23 06:34:57 51°15.276 2°54.669 347 13.5 347 10.6
2011-05-23 06:35:02 51°15.294 2°54.663 346.6 13.5 348 10.5
2011-05-23 06:35:08 51°15.316 2°54.654 346.7 13.5 346 10.7
2011-05-23 06:35:12 51°15.33 2°54.65 346.3 13.5 347 10.7
2011-05-23 06:35:17 51°15.348 2°54.642 346.2 13.4 346 10.7
2011-05-23 06:35:22 51°15.366 2°54.635 345.5 13.3 345 10.8
2011-05-23 06:35:28 51°15.387 2°54.625 344.4 13.3 343 10.9
2011-05-23 06:35:32 51°15.402 2°54.618 343.2 13.3 343 11.2
2011-05-23 06:35:37 51°15.419 2°54.609 342.7 13.3 343 11
2011-05-23 06:35:42 51°15.437 2°54.601 342.7 13.3 343 11.2
2011-05-23 06:35:47 51°15.455 2°54.592 342 13.3 343 11.3
2011-05-23 06:35:53 51°15.475 2°54.581 342.3 13.3 343 11.3
2011-05-23 06:35:57 51°15.489 2°54.575 342.3 13.3 343 11.4
2011-05-23 06:36:02 51°15.507 2°54.566 342.2 13.3 343 11.3
2011-05-23 06:36:07 51°15.525 2°54.557 342.3 13.2 343 11.2
2011-05-23 06:36:12 51°15.542 2°54.549 342.5 13.2 343 11.6
2011-05-23 06:36:17 51°15.56 2°54.54 342.6 13.2 343 11.4
2011-05-23 06:36:22 51°15.577 2°54.532 342.6 13.2 343 11.4
2011-05-23 06:36:27 51°15.595 2°54.524 343.2 13.2 344 11.6
2011-05-23 06:36:32 51°15.613 2°54.515 343.4 13.2 343 11.7
2011-05-23 06:36:37 51°15.63 2°54.507 343.2 13.2 343 11.7
2011-05-23 06:36:42 51°15.648 2°54.498 343.5 13.3 343 11.9
2011-05-23 06:36:47 51°15.665 2°54.49 344 13.2 344 11.7
2011-05-23 06:36:52 51°15.683 2°54.483 344.8 13.2 346 11.6
2011-05-23 06:36:57 51°15.701 2°54.476 346.3 13.3 347 12
2011-05-23 06:37:02 51°15.719 2°54.468 346.3 13.2 346 11.7
2011-05-23 06:37:07 51°15.737 2°54.464 347.7 13.3 348 12
2011-05-23 06:37:12 51°15.755 2°54.456 347.2 13.3 346 12
2011-05-23 06:37:17 51°15.773 2°54.45 347.5 13.4 348 12
2011-05-23 06:37:22 51°15.791 2°54.443 347.4 13.4 346 12
2011-05-23 06:37:28 51°15.812 2°54.435 346.7 13.3 346 12.1
2011-05-23 06:37:32 51°15.827 2°54.429 346.3 13.3 345 12.1
2011-05-23 06:37:37 51°15.844 2°54.42 344.2 13.3 343 12.1
2011-05-23 06:37:42 51°15.862 2°54.411 343.4 13.3 342 12.2
2011-05-23 06:37:47 51°15.879 2°54.403 342.5 12.9 342 12.2
2011-05-23 06:37:52 51°15.895 2°54.394 341.2 12.3 341 12.3
2011-05-23 06:37:57 51°15.911 2°54.385 340.1 11.8 340 12.4
2011-05-23 06:38:02 51°15.926 2°54.376 339 11.3 340 12.6
2011-05-23 06:38:07 51°15.939 2°54.368 337.9 10.7 339 12.3
2011-05-23 06:38:13 51°15.955 2°54.358 336.7 10.2 338 12.5
2011-05-23 06:38:17 51°15.965 2°54.351 335.9 9.9 338 12.6
2011-05-23 06:38:22 51°15.978 2°54.343 335.3 9.5 338 12.5
2011-05-23 06:38:27 51°15.99 2°54.336 335 9.3 339 12.6
2011-05-23 06:38:33 51°16.004 2°54.327 334.7 9 339 12.4
2011-05-23 06:38:37 51°16.013 2°54.322 335 8.8 340 12.5
2011-05-23 06:38:42 51°16.024 2°54.316 335.4 8.5 341 12.5
2011-05-23 06:38:47 51°16.034 2°54.31 335.9 8.2 341 12.7
2011-05-23 06:38:52 51°16.045 2°54.305 336.1 8 342 12.6
2011-05-23 06:38:57 51°16.056 2°54.299 336.3 7.8 342 12.8
2011-05-23 06:39:02 51°16.066 2°54.294 336.6 7.7 343 12.8
2011-05-23 06:39:07 51°16.076 2°54.289 336.9 7.5 343 12.8
2011-05-23 06:39:12 51°16.085 2°54.284 337.2 7.4 344 12.9
2011-05-23 06:39:17 51°16.095 2°54.28 337.6 7.3 344 12.7
2011-05-23 06:39:22 51°16.105 2°54.275 337.8 7.2 344 12.8
2011-05-23 06:39:27 51°16.114 2°54.271 337.9 7.1 344 12.7
2011-05-23 06:39:32 51°16.124 2°54.267 337.9 7.1 345 12.7
2011-05-23 06:39:37 51°16.133 2°54.263 338 7 345 12.7
2011-05-23 06:39:42 51°16.142 2°54.26 339.9 6.9 348 12.9
2011-05-23 06:39:48 51°16.153 2°54.257 341.8 6.8 350 12.9
2011-05-23 06:39:52 51°16.161 2°54.255 343.5 6.6 351 12.9
2011-05-23 06:39:57 51°16.17 2°54.253 344.8 6.5 352 12.9
2011-05-23 06:40:02 51°16.178 2°54.251 346.3 6.2 352 12.8
2011-05-23 06:40:07 51°16.186 2°54.249 346.8 5.9 353 12.8
2011-05-23 06:40:13 51°16.196 2°54.248 347.5 5.7 354 12.9
2011-05-23 06:40:17 51°16.202 2°54.247 348 5.6 355 12.7
2011-05-23 06:40:22 51°16.209 2°54.246 348.9 5.2 356 12.9
2011-05-23 06:40:27 51°16.216 2°54.245 349.3 5 356 12.9
2011-05-23 06:40:33 51°16.224 2°54.244 349.5 4.8 356 13
2011-05-23 06:40:37 51°16.229 2°54.244 348.8 4.6 356 13
2011-05-23 06:40:42 51°16.235 2°54.243 347.5 4.4 354 13
2011-05-23 06:40:47 51°16.241 2°54.242 346 4.2 354 12.9
2011-05-23 06:40:53 51°16.248 2°54.24 344.4 3.9 351 12.8
2011-05-23 06:40:57 51°16.252 2°54.24 342.7 3.7 354 12.8
2011-05-23 06:41:02 51°16.256 2°54.238 340.7 3.2 351 12.8
2011-05-23 06:41:07 51°16.26 2°54.238 338.3 2.9 354 12.9
2011-05-23 06:41:12 51°16.264 2°54.237 337.1 2.6 355 13
2011-05-23 06:41:17 51°16.267 2°54.237 337.3 2.4 359 12.9
2011-05-23 06:41:22 51°16.27 2°54.237 338.3 2 5 13.1
2011-05-23 06:41:27 51°16.272 2°54.238 339.9 1.7 12 13
2011-05-23 06:41:32 51°16.274 2°54.239 341.3 1.4 20 13
2011-05-23 06:41:37 51°16.276 2°54.24 342.9 1.1 32 12.9
2011-05-23 06:41:42 51°16.276 2°54.242 343.9 0.8 56 12.9
2011-05-23 06:41:48 51°16.277 2°54.244 344.8 0.9 72 13
2011-05-23 06:41:52 51°16.277 2°54.246 344.8 1.1 70 13.2
2011-05-23 06:41:57 51°16.278 2°54.248 344.7 0.9 70 13.1
2011-05-23 06:42:02 51°16.278 2°54.25 344.7 1 64 12.8
2011-05-23 06:42:08 51°16.279 2°54.252 344.6 1 62 13
2011-05-23 06:42:12 51°16.28 2°54.254 344.7 1.1 64 12.9
2011-05-23 06:42:17 51°16.28 2°54.256 344.8 1.1 61 12.9
2011-05-23 06:42:22 51°16.281 2°54.258 345.1 1.1 61 12.9
2011-05-23 06:42:28 51°16.282 2°54.261 345.9 1.1 62 12.8
2011-05-23 06:42:33 51°16.282 2°54.263 346.3 1.1 62 12.9
2011-05-23 06:42:37 51°16.283 2°54.264 347.5 1.1 61 13
2011-05-23 06:42:42 51°16.284 2°54.266 348.5 1.1 59 -999
2011-05-23 06:42:48 51°16.285 2°54.269 349.2 1 59 -999
2011-05-23 06:42:53 51°16.286 2°54.271 350.4 1.2 62 4.8
2011-05-23 06:42:58 51°16.287 2°54.273 351.4 1.1 56 5
2011-05-23 06:43:03 51°16.287 2°54.275 352.1 1.1 56 4.8
2011-05-23 06:43:08 51°16.288 2°54.277 353.1 1.1 57 -999
2011-05-23 06:43:13 51°16.289 2°54.279 353.7 1.1 58 4.8
2011-05-23 06:43:18 51°16.29 2°54.281 354.3 1.1 54 -999
2011-05-23 06:43:23 51°16.291 2°54.283 354.5 1.1 56 13
2011-05-23 06:43:28 51°16.292 2°54.285 354.9 1.1 56 12.8
2011-05-23 06:43:33 51°16.292 2°54.287 355 1.1 55 12.9
2011-05-23 06:43:37 51°16.293 2°54.289 355.6 1.1 53 13
2011-05-23 06:43:42 51°16.294 2°54.291 355.9 1.2 55 13.1
2011-05-23 06:43:47 51°16.295 2°54.293 356.3 1.1 52 13.1
2011-05-23 06:43:53 51°16.296 2°54.295 356.5 1.2 54 12.9
2011-05-23 06:43:57 51°16.297 2°54.297 356.6 1.2 51 12.8
2011-05-23 06:44:02 51°16.298 2°54.299 356.6 1.2 54 12.9
2011-05-23 06:44:08 51°16.299 2°54.301 356.6 1.2 51 13
2011-05-23 06:44:12 51°16.3 2°54.303 356.4 1.2 52 13
2011-05-23 06:44:17 51°16.301 2°54.305 356.2 1.2 50 12.9
2011-05-23 06:44:22 51°16.302 2°54.307 356 1.2 52 12.9
2011-05-23 06:44:28 51°16.303 2°54.309 356 1.1 51 13
2011-05-23 06:44:32 51°16.304 2°54.311 355.7 1.2 51 13
2011-05-23 06:44:37 51°16.305 2°54.313 355.4 1.2 49 12.8
2011-05-23 06:44:42 51°16.306 2°54.315 354.9 1.1 50 12.7
2011-05-23 06:44:48 51°16.307 2°54.317 354.2 1.2 53 12.9
2011-05-23 06:44:53 51°16.308 2°54.319 353.7 1.2 52 13.1
2011-05-23 06:44:57 51°16.309 2°54.321 353.3 1.2 52 13.1
2011-05-23 06:45:02 51°16.31 2°54.323 352.7 1.1 47 12.8
2011-05-23 06:45:07 51°16.311 2°54.325 352.1 1.2 54 12.8
2011-05-23 06:45:13 51°16.312 2°54.327 351.8 1.1 51 13.1
2011-05-23 06:45:17 51°16.313 2°54.329 351.7 1.2 53 12.9
2011-05-23 06:45:22 51°16.314 2°54.331 351.4 1.2 53 12.8
2011-05-23 06:45:27 51°16.315 2°54.332 351.2 1.2 51 13
2011-05-23 06:45:32 51°16.316 2°54.334 350.9 1.2 48 12.9
2011-05-23 06:45:37 51°16.317 2°54.336 350.2 1.1 46 12.8
2011-05-23 06:45:42 51°16.318 2°54.338 349.9 1.1 49 12.8
2011-05-23 06:45:47 51°16.319 2°54.34 349.5 1.1 52 12.8
2011-05-23 06:45:52 51°16.32 2°54.343 349 1.2 51 13
2011-05-23 06:45:57 51°16.321 2°54.345 348.7 1.1 47 13.1
2011-05-23 06:46:02 51°16.322 2°54.347 348 1.1 47 12.9
2011-05-23 06:46:07 51°16.323 2°54.348 347.2 1.1 47 12.8
2011-05-23 06:46:12 51°16.324 2°54.35 346.3 1.2 48 12.8
2011-05-23 06:46:17 51°16.325 2°54.352 345.7 1.1 45 13
2011-05-23 06:46:22 51°16.326 2°54.354 345.3 1.2 47 13
2011-05-23 06:46:28 51°16.328 2°54.356 344.6 1.1 47 12.9
2011-05-23 06:46:32 51°16.329 2°54.357 344 1.2 45 13
2011-05-23 06:46:37 51°16.33 2°54.359 343.4 1.2 47 13
2011-05-23 06:46:42 51°16.331 2°54.361 342.5 1.2 47 13.1
2011-05-23 06:46:47 51°16.332 2°54.363 341.9 1.2 45 13
2011-05-23 06:46:52 51°16.333 2°54.365 341.3 1.2 42 12.9
2011-05-23 06:46:57 51°16.335 2°54.367 340.3 1.2 41 12.9
2011-05-23 06:47:02 51°16.336 2°54.369 339.8 1.2 48 12.8
2011-05-23 06:47:07 51°16.337 2°54.371 339.4 1.2 47 13
2011-05-23 06:47:13 51°16.338 2°54.373 338.9 1.1 46 13
2011-05-23 06:47:17 51°16.338 2°54.374 338.3 1.1 45 12.9
2011-05-23 06:47:22 51°16.34 2°54.376 337.9 1.1 44 13.1
2011-05-23 06:47:27 51°16.341 2°54.377 337 1.1 45 13
2011-05-23 06:47:32 51°16.342 2°54.379 336 1.1 44 13
2011-05-23 06:47:37 51°16.343 2°54.381 334.9 1.1 44 13
2011-05-23 06:47:42 51°16.344 2°54.382 334.2 1.1 43 13
2011-05-23 06:47:47 51°16.345 2°54.384 334 1.2 45 13
2011-05-23 06:47:52 51°16.347 2°54.386 333.5 1.2 44 13
2011-05-23 06:47:57 51°16.348 2°54.388 333 1.1 43 12.9
2011-05-23 06:48:02 51°16.349 2°54.389 332.5 1.1 42 12.9
2011-05-23 06:48:07 51°16.351 2°54.39 332.2 1.1 42 13
2011-05-23 06:48:12 51°16.352 2°54.391 331.6 1.1 41 12.9
2011-05-23 06:48:17 51°16.353 2°54.393 331 1.1 42 13
2011-05-23 06:48:21 51°16.354 2°54.394 330.5 1.2 41 12.9
2011-05-23 06:48:27 51°16.355 2°54.396 329.8 1.1 43 12.8
2011-05-23 06:48:32 51°16.356 2°54.398 329.6 1.1 43 12.9
2011-05-23 06:48:37 51°16.358 2°54.399 329.2 1.1 45 13.1
2011-05-23 06:48:41 51°16.359 2°54.401 328.9 1.1 44 13.2
2011-05-23 06:48:47 51°16.36 2°54.403 328.8 1.1 45 12.9
2011-05-23 06:48:52 51°16.361 2°54.405 328.6 1 44 12.8
2011-05-23 06:48:57 51°16.362 2°54.406 328.6 1.2 45 12.9
2011-05-23 06:49:02 51°16.363 2°54.408 328.6 1.1 44 13
2011-05-23 06:49:07 51°16.364 2°54.41 328.3 1.2 44 13.1
2011-05-23 06:49:12 51°16.365 2°54.412 328.4 1.1 43 13
2011-05-23 06:49:17 51°16.367 2°54.414 328.2 1.2 44 13
2011-05-23 06:49:22 51°16.368 2°54.416 328.2 1.1 44 12.9
2011-05-23 06:49:27 51°16.369 2°54.418 328.1 1.2 44 13
2011-05-23 06:49:32 51°16.37 2°54.419 328.2 1.2 44 12.8
2011-05-23 06:49:37 51°16.371 2°54.421 328.3 1.1 43 12.8
2011-05-23 06:49:42 51°16.372 2°54.423 328.6 1.2 49 12.8
2011-05-23 06:49:47 51°16.373 2°54.425 328.8 1.2 47 12.9
2011-05-23 06:49:52 51°16.374 2°54.427 328.9 1.2 47 12.8
2011-05-23 06:49:57 51°16.376 2°54.429 328.8 1.1 48 13
2011-05-23 06:50:02 51°16.376 2°54.431 329 1.2 49 13
2011-05-23 06:50:07 51°16.377 2°54.433 329 1.2 48 13.1
2011-05-23 06:50:12 51°16.379 2°54.435 328.8 1.2 46 13
2011-05-23 06:50:17 51°16.38 2°54.437 328.7 1.1 49 13
2011-05-23 06:50:22 51°16.381 2°54.438 328.7 1.1 47 13
2011-05-23 06:50:27 51°16.382 2°54.44 328.9 1.2 47 12.8
2011-05-23 06:50:32 51°16.383 2°54.442 328.7 1.1 48 12.8
2011-05-23 06:50:37 51°16.384 2°54.444 328.9 1.2 47 12.9
2011-05-23 06:50:42 51°16.385 2°54.446 328.9 1.1 48 12.9
2011-05-23 06:50:47 51°16.386 2°54.448 328.9 1.2 47 12.9
2011-05-23 06:50:52 51°16.387 2°54.45 329.1 1.2 47 12.8
2011-05-23 06:50:57 51°16.388 2°54.452 329.1 1.2 47 12.8
2011-05-23 06:51:02 51°16.389 2°54.453 329.4 1.1 45 12.9
2011-05-23 06:51:07 51°16.391 2°54.455 329.5 1.2 38 12.9
2011-05-23 06:51:12 51°16.392 2°54.456 329.6 1.3 26 12.9
2011-05-23 06:51:17 51°16.394 2°54.457 329.5 1.4 22 12.8
2011-05-23 06:51:22 51°16.396 2°54.458 328.4 1.4 13 12.9
2011-05-23 06:51:27 51°16.399 2°54.459 326.3 1.5 2 12.8
2011-05-23 06:51:32 51°16.401 2°54.459 323.7 1.7 355 12.6
2011-05-23 06:51:37 51°16.403 2°54.458 320.1 1.8 350 12.8
2011-05-23 06:51:42 51°16.406 2°54.457 316.1 1.8 341 13
2011-05-23 06:51:47 51°16.408 2°54.455 311.8 1.9 336 12.8
2011-05-23 06:51:53 51°16.411 2°54.452 307.4 2 331 12.9
2011-05-23 06:51:57 51°16.412 2°54.45 302.7 2 323 13
2011-05-23 06:52:01 51°16.414 2°54.448 298.2 2.1 317 12.9
2011-05-23 06:52:07 51°16.416 2°54.444 293.9 2.1 311 12.8
2011-05-23 06:52:12 51°16.418 2°54.44 289.3 2.1 305 12.9
2011-05-23 06:52:17 51°16.419 2°54.436 284.9 2.2 299 12.7
2011-05-23 06:52:22 51°16.42 2°54.432 280.4 2.2 293 12.8
2011-05-23 06:52:27 51°16.421 2°54.427 275.9 2.1 286 12.9
2011-05-23 06:52:32 51°16.422 2°54.423 271.3 2.2 280 12.9
2011-05-23 06:52:37 51°16.422 2°54.418 266.8 2.2 277 13
2011-05-23 06:52:42 51°16.422 2°54.413 262.3 2.2 268 13.1
2011-05-23 06:52:47 51°16.422 2°54.408 257.7 2.2 264 12.9
2011-05-23 06:52:52 51°16.422 2°54.403 252.8 2.2 256 12.8
2011-05-23 06:52:57 51°16.421 2°54.399 248 2.3 252 12.9
2011-05-23 06:53:02 51°16.419 2°54.394 242.8 2.3 242 12.9
2011-05-23 06:53:07 51°16.418 2°54.39 237.7 2.3 238 12.9
2011-05-23 06:53:12 51°16.416 2°54.386 232.5 2.3 229 13
2011-05-23 06:53:17 51°16.413 2°54.382 227.4 2.3 224 13.1
2011-05-23 06:53:22 51°16.411 2°54.379 221.9 2.4 219 12.9
2011-05-23 06:53:27 51°16.407 2°54.376 216 2.5 209 12.8
2011-05-23 06:53:32 51°16.404 2°54.374 211.2 2.8 207 12.9
2011-05-23 06:53:37 51°16.4 2°54.371 208.2 3.5 203 12.9
2011-05-23 06:53:42 51°16.394 2°54.367 206 4.4 203 12.8
2011-05-23 06:53:47 51°16.387 2°54.363 204.6 5.3 201 12.9
2011-05-23 06:53:52 51°16.379 2°54.358 204.6 6.1 202 12.8
2011-05-23 06:53:57 51°16.371 2°54.352 205 6.6 204 12.6
2011-05-23 06:54:02 51°16.362 2°54.346 205.7 7.1 204 12.9
2011-05-23 06:54:07 51°16.353 2°54.339 207 7.5 206 12.9
2011-05-23 06:54:12 51°16.343 2°54.331 208.2 7.8 207 13
2011-05-23 06:54:17 51°16.333 2°54.323 209.8 8 208 12.8
2011-05-23 06:54:21 51°16.325 2°54.315 210.9 8.3 210 12.6
2011-05-23 06:54:27 51°16.314 2°54.303 212 8.5 212 12.7
2011-05-23 06:54:32 51°16.304 2°54.292 213.4 8.6 213 12.8
2011-05-23 06:54:37 51°16.294 2°54.281 215.2 8.8 215 12.8
2011-05-23 06:54:42 51°16.284 2°54.269 217.2 8.9 218 12.6
2011-05-23 06:54:47 51°16.275 2°54.257 219.3 9 220 12.7
2011-05-23 06:54:52 51°16.265 2°54.243 221.5 9.1 223 12.6
2011-05-23 06:54:57 51°16.256 2°54.23 223.6 9.1 224 12.6
2011-05-23 06:55:02 51°16.247 2°54.215 225.8 9.2 227 12.7
2011-05-23 06:55:07 51°16.239 2°54.2 228.2 9.3 230 12.7
2011-05-23 06:55:12 51°16.23 2°54.184 230.1 9.3 230 12.6
2011-05-23 06:55:17 51°16.222 2°54.168 231.2 9.3 232 12.6
2011-05-23 06:55:22 51°16.214 2°54.152 232.1 9 232 12.6
2011-05-23 06:55:27 51°16.208 2°54.138 232.9 8 234 12.8
2011-05-23 06:55:32 51°16.202 2°54.124 233.9 7.1 234 12.6
2011-05-23 06:55:37 51°16.197 2°54.112 234.7 6.6 236 12.6
2011-05-23 06:55:42 51°16.193 2°54.101 237.4 5.9 241 12.6
2011-05-23 06:55:47 51°16.19 2°54.09 241.7 5.2 247 12.5
2011-05-23 06:55:52 51°16.188 2°54.081 246.2 4.6 254 12.5
2011-05-23 06:55:57 51°16.186 2°54.072 251.4 4.2 257 12.7
2011-05-23 06:56:02 51°16.186 2°54.063 256.3 3.7 265 12.7
2011-05-23 06:56:07 51°16.186 2°54.056 261.6 3.3 270 12.7
2011-05-23 06:56:13 51°16.187 2°54.049 266.9 2.8 281 12.7
2011-05-23 06:56:17 51°16.187 2°54.044 272.1 2.6 285 12.8
2011-05-23 06:56:22 51°16.189 2°54.04 277.3 2.2 297 12.7
2011-05-23 06:56:27 51°16.19 2°54.036 282.6 1.9 303 13
2011-05-23 06:56:33 51°16.192 2°54.033 287.7 1.7 315 12.8
2011-05-23 06:56:37 51°16.194 2°54.031 292.6 1.4 323 12.7
2011-05-23 06:56:41 51°16.194 2°54.03 297.2 1.2 340 12.8
2011-05-23 06:56:47 51°16.196 2°54.03 301 1 353 12.8
2011-05-23 06:56:52 51°16.197 2°54.03 304.1 0.9 2 12.7
2011-05-23 06:56:57 51°16.199 2°54.03 307.1 1 1 12.8
2011-05-23 06:57:02 51°16.2 2°54.03 310 1.1 4 12.8
2011-05-23 06:57:07 51°16.202 2°54.03 312.9 1.1 4 12.7
2011-05-23 06:57:12 51°16.203 2°54.031 315.7 1.1 5 12.8
2011-05-23 06:57:17 51°16.205 2°54.031 318.2 1.1 7 12.8
2011-05-23 06:57:22 51°16.206 2°54.031 320.8 1.1 11 12.8
2011-05-23 06:57:27 51°16.208 2°54.032 323.1 1.1 11 12.8
2011-05-23 06:57:32 51°16.209 2°54.032 325.1 1.1 13 12.9
2011-05-23 06:57:37 51°16.211 2°54.033 326.9 1.1 12 12.8
2011-05-23 06:57:42 51°16.212 2°54.033 328.2 1.2 13 12.7
2011-05-23 06:57:47 51°16.214 2°54.034 329.7 1.1 9 12.7
2011-05-23 06:57:52 51°16.215 2°54.035 330.8 1.2 15 12.7
2011-05-23 06:57:57 51°16.217 2°54.035 331.6 1.2 14 12.8
2011-05-23 06:58:02 51°16.218 2°54.036 332.1 1.2 15 12.8
2011-05-23 06:58:07 51°16.22 2°54.036 332.3 1.1 16 12.7
2011-05-23 06:58:12 51°16.222 2°54.037 332.5 1.1 18 12.7
2011-05-23 06:58:17 51°16.223 2°54.038 332.5 1.1 17 12.6
2011-05-23 06:58:21 51°16.224 2°54.039 332.2 1.1 18 12.6
2011-05-23 06:58:27 51°16.226 2°54.04 331.7 1.1 23 12.5
2011-05-23 06:58:32 51°16.227 2°54.041 331.2 1.1 26 12.9
2011-05-23 06:58:37 51°16.229 2°54.042 330.6 1.1 27 13
2011-05-23 06:58:42 51°16.23 2°54.043 330.3 1.1 28 12.9
2011-05-23 06:58:47 51°16.232 2°54.044 329.5 1.1 25 12.8
2011-05-23 06:58:52 51°16.233 2°54.045 329.3 1.1 30 12.8
2011-05-23 06:58:57 51°16.234 2°54.046 328.9 1 25 12.7
2011-05-23 06:59:02 51°16.236 2°54.047 328.5 1 27 12.7
2011-05-23 06:59:07 51°16.237 2°54.048 328 1 28 12.9
2011-05-23 06:59:12 51°16.238 2°54.05 327.5 1 30 12.9
2011-05-23 06:59:17 51°16.239 2°54.051 326.9 1 28 12.8
2011-05-23 06:59:21 51°16.24 2°54.051 326.7 1.1 33 12.7
2011-05-23 06:59:27 51°16.242 2°54.053 326.4 1 30 12.9
2011-05-23 06:59:32 51°16.243 2°54.054 326.4 1 30 12.8
2011-05-23 06:59:37 51°16.244 2°54.055 326.4 1 30 12.8
2011-05-23 06:59:42 51°16.245 2°54.056 326.1 1 33 12.6
2011-05-23 06:59:47 51°16.246 2°54.057 326.1 1 35 12.7
2011-05-23 06:59:52 51°16.247 2°54.058 326.1 1 34 12.9
2011-05-23 06:59:57 51°16.248 2°54.06 326.1 1 33 12.9
2011-05-23 07:00:02 51°16.25 2°54.061 326.4 1 33 12.8
2011-05-23 07:00:07 51°16.251 2°54.062 326.3 1 31 12.8
2011-05-23 07:00:12 51°16.252 2°54.063 326.3 1 32 12.9
2011-05-23 07:00:17 51°16.253 2°54.064 326.2 1 35 12.9
2011-05-23 07:00:21 51°16.254 2°54.065 326.2 1 34 12.9
2011-05-23 07:00:27 51°16.255 2°54.067 326.3 1 33 12.9
2011-05-23 07:00:32 51°16.256 2°54.068 326.1 1 35 12.8
2011-05-23 07:00:37 51°16.257 2°54.069 326 1 36 12.9
2011-05-23 07:00:42 51°16.259 2°54.07 325.6 1 32 12.5
2011-05-23 07:00:47 51°16.26 2°54.072 325.9 1 37 12.6
2011-05-23 07:00:52 51°16.261 2°54.073 325.9 1 33 12.8
2011-05-23 07:00:57 51°16.262 2°54.074 325.7 1 36 12.8
2011-05-23 07:01:02 51°16.263 2°54.075 325.7 1 36 12.9
2011-05-23 07:01:07 51°16.265 2°54.077 325.6 0.9 37 12.7
2011-05-23 07:01:12 51°16.266 2°54.078 325.5 1 35 12.7
2011-05-23 07:01:17 51°16.267 2°54.079 325.2 1 34 12.9
2011-05-23 07:01:22 51°16.268 2°54.081 325 1 37 12.9
2011-05-23 07:01:27 51°16.269 2°54.082 324.9 1 38 12.9
2011-05-23 07:01:32 51°16.27 2°54.083 325 1 37 12.7
2011-05-23 07:01:37 51°16.271 2°54.085 325 1.1 38 12.8
2011-05-23 07:01:42 51°16.272 2°54.086 325.2 1 35 12.9
2011-05-23 07:01:47 51°16.273 2°54.087 325.1 1 35 12.9
2011-05-23 07:01:52 51°16.274 2°54.089 325.1 1 37 12.9
2011-05-23 07:01:57 51°16.276 2°54.09 324.8 1 40 13
2011-05-23 07:02:02 51°16.277 2°54.092 324.7 1 39 12.9
2011-05-23 07:02:07 51°16.278 2°54.093 324.8 1 38 12.9
2011-05-23 07:02:12 51°16.279 2°54.094 324.7 1 36 12.9
2011-05-23 07:02:17 51°16.28 2°54.096 324.7 1 38 12.9
2011-05-23 07:02:22 51°16.281 2°54.097 324.7 1 37 12.8
2011-05-23 07:02:27 51°16.282 2°54.098 324.8 1 37 12.9
2011-05-23 07:02:32 51°16.283 2°54.1 324.8 0.9 36 12.8
2011-05-23 07:02:37 51°16.284 2°54.101 324.8 1 39 12.8
2011-05-23 07:02:42 51°16.286 2°54.102 324.8 1 39 12.8
2011-05-23 07:02:47 51°16.287 2°54.104 324.6 1 38 12.8
2011-05-23 07:02:52 51°16.288 2°54.105 324.5 0.9 37 12.7
2011-05-23 07:02:57 51°16.289 2°54.107 324.5 1 36 12.6
2011-05-23 07:03:02 51°16.29 2°54.108 324.5 1 37 12.6
2011-05-23 07:03:07 51°16.291 2°54.109 324.2 1 36 12.8
2011-05-23 07:03:12 51°16.292 2°54.111 324.5 0.9 38 12.9
2011-05-23 07:03:17 51°16.293 2°54.112 324.8 1 38 12.7
2011-05-23 07:03:22 51°16.294 2°54.113 324.9 1 38 12.9
2011-05-23 07:03:27 51°16.295 2°54.114 325 1 41 12.8
2011-05-23 07:03:32 51°16.296 2°54.116 325.2 0.9 43 12.7
2011-05-23 07:03:37 51°16.298 2°54.117 325.4 0.9 42 12.7
2011-05-23 07:03:41 51°16.299 2°54.119 325.7 1 40 12.6
2011-05-23 07:03:47 51°16.3 2°54.12 325.2 1 42 12.8
2011-05-23 07:03:52 51°16.301 2°54.122 325 1 45 12.8
2011-05-23 07:03:57 51°16.302 2°54.123 325.2 1 46 12.8
2011-05-23 07:04:02 51°16.303 2°54.125 325.6 0.9 43 12.8
2011-05-23 07:04:07 51°16.304 2°54.126 326 1 43 12.6
2011-05-23 07:04:12 51°16.305 2°54.128 326 1 42 12.8
2011-05-23 07:04:17 51°16.306 2°54.129 326.1 1 43 12.9
2011-05-23 07:04:22 51°16.307 2°54.131 326.3 1 43 12.9
2011-05-23 07:04:27 51°16.308 2°54.132 326.3 0.9 44 12.7
2011-05-23 07:04:32 51°16.309 2°54.134 326.6 0.9 41 12.7
2011-05-23 07:04:37 51°16.31 2°54.135 326.6 0.9 38 12.8
2011-05-23 07:04:42 51°16.311 2°54.136 326.3 1 42 12.8
2011-05-23 07:04:47 51°16.312 2°54.138 326.3 0.9 39 12.8
2011-05-23 07:04:52 51°16.313 2°54.139 325.9 1 41 12.6
2011-05-23 07:04:57 51°16.314 2°54.14 325.4 1 41 12.7
2011-05-23 07:05:02 51°16.315 2°54.142 325.2 0.9 39 12.6
2011-05-23 07:05:07 51°16.316 2°54.143 324.8 1 40 12.8
2011-05-23 07:05:13 51°16.317 2°54.145 324.5 0.9 38 12.8
2011-05-23 07:05:17 51°16.318 2°54.146 324.4 0.9 40 12.8
2011-05-23 07:05:22 51°16.319 2°54.147 324.1 1 38 12.7
2011-05-23 07:05:27 51°16.32 2°54.148 323.6 0.9 37 12.8
2011-05-23 07:05:32 51°16.321 2°54.15 323.2 0.9 41 12.6
2011-05-23 07:05:37 51°16.322 2°54.151 323 0.9 38 12.6
2011-05-23 07:05:41 51°16.323 2°54.152 322.9 1 44 12.8
2011-05-23 07:05:47 51°16.325 2°54.153 322.7 0.9 42 12.9
2011-05-23 07:05:52 51°16.326 2°54.155 322.6 1 41 12.9
2011-05-23 07:05:57 51°16.327 2°54.156 322.5 0.9 38 12.8
2011-05-23 07:06:02 51°16.328 2°54.157 322.4 1 41 12.6
2011-05-23 07:06:07 51°16.329 2°54.159 322.4 0.9 40 12.7
2011-05-23 07:06:12 51°16.33 2°54.16 322.5 1 41 12.8
2011-05-23 07:06:17 51°16.331 2°54.162 322.4 1 41 12.8
2011-05-23 07:06:22 51°16.332 2°54.163 322.4 0.9 39 12.7
2011-05-23 07:06:27 51°16.333 2°54.165 322.5 1 40 12.8
2011-05-23 07:06:32 51°16.334 2°54.166 322.8 0.9 43 12.6
2011-05-23 07:06:37 51°16.335 2°54.167 323.1 0.9 42 12.6
2011-05-23 07:06:42 51°16.336 2°54.169 323.2 0.9 45 12.8
2011-05-23 07:06:47 51°16.337 2°54.17 323.3 0.9 44 12.8
2011-05-23 07:06:52 51°16.337 2°54.172 323.6 0.9 45 12.7
2011-05-23 07:06:57 51°16.338 2°54.174 323.8 1 45 12.9
2011-05-23 07:07:01 51°16.339 2°54.174 323.8 0.9 44 12.9
2011-05-23 07:07:07 51°16.34 2°54.176 323.8 1 46 12.7
2011-05-23 07:07:13 51°16.341 2°54.178 324 0.9 45 12.8
2011-05-23 07:07:17 51°16.342 2°54.179 324.1 1 43 12.6
2011-05-23 07:07:21 51°16.343 2°54.181 324.1 0.9 45 12.6
2011-05-23 07:07:27 51°16.344 2°54.183 324.1 1 44 12.7
2011-05-23 07:07:32 51°16.345 2°54.184 324.2 1 43 12.7
2011-05-23 07:07:37 51°16.346 2°54.186 324.2 1 45 12.7
2011-05-23 07:07:42 51°16.347 2°54.187 323.8 0.9 45 12.8
2011-05-23 07:07:47 51°16.347 2°54.189 324 1 46 12.7
2011-05-23 07:07:52 51°16.348 2°54.19 324.2 1 44 12.8
2011-05-23 07:07:57 51°16.349 2°54.192 324.4 1 45 12.6
2011-05-23 07:08:02 51°16.35 2°54.193 324.5 1 48 12.7
2011-05-23 07:08:07 51°16.351 2°54.195 324.8 1 49 12.8
2011-05-23 07:08:12 51°16.352 2°54.197 325.2 0.9 48 12.7
2011-05-23 07:08:17 51°16.353 2°54.198 325.5 1 48 12.7
2011-05-23 07:08:22 51°16.354 2°54.2 325.7 0.9 47 12.8
2011-05-23 07:08:27 51°16.355 2°54.201 325.6 0.9 47 12.7
2011-05-23 07:08:32 51°16.356 2°54.203 325.7 1 48 12.6
2011-05-23 07:08:37 51°16.356 2°54.205 325.6 1 48 12.8
2011-05-23 07:08:41 51°16.357 2°54.206 325.6 1 48 12.8
2011-05-23 07:08:47 51°16.358 2°54.208 325.6 0.9 46 12.6
2011-05-23 07:08:53 51°16.359 2°54.21 325.6 0.9 47 12.6
2011-05-23 07:08:57 51°16.36 2°54.211 325.8 0.9 45 12.7
2011-05-23 07:09:02 51°16.361 2°54.213 325.8 1 45 12.7
2011-05-23 07:09:07 51°16.362 2°54.214 325.8 1 47 12.7
2011-05-23 07:09:12 51°16.363 2°54.216 325.6 1 49 12.8
2011-05-23 07:09:17 51°16.364 2°54.217 325.9 1 51 12.7
2011-05-23 07:09:22 51°16.365 2°54.219 326.2 1.1 49 12.9
2011-05-23 07:09:27 51°16.365 2°54.221 326.2 0.9 48 12.7
2011-05-23 07:09:32 51°16.366 2°54.222 326.9 0.9 48 12.7
2011-05-23 07:09:37 51°16.367 2°54.224 327.4 1 47 12.5
2011-05-23 07:09:42 51°16.368 2°54.225 327.8 1 47 12.8
2011-05-23 07:09:47 51°16.369 2°54.227 328.1 0.9 47 12.8
2011-05-23 07:09:53 51°16.37 2°54.229 328.2 0.9 47 12.7
2011-05-23 07:09:57 51°16.371 2°54.23 328.7 0.9 47 12.8
2011-05-23 07:10:02 51°16.372 2°54.231 328.8 0.9 45 12.8
2011-05-23 07:10:07 51°16.373 2°54.233 328.9 0.9 48 12.6
2011-05-23 07:10:12 51°16.373 2°54.234 329.1 0.9 46 12.8
2011-05-23 07:10:17 51°16.374 2°54.236 329.4 0.9 48 12.8
2011-05-23 07:10:21 51°16.375 2°54.237 329.6 0.8 46 12.6
2011-05-23 07:10:27 51°16.376 2°54.239 329.8 1 49 12.6
2011-05-23 07:10:32 51°16.377 2°54.241 329.9 0.9 50 12.6
2011-05-23 07:10:37 51°16.377 2°54.242 330.2 0.9 48 12.7
2011-05-23 07:10:41 51°16.378 2°54.243 330.4 0.9 44 12.7
2011-05-23 07:10:47 51°16.379 2°54.245 330.5 1.1 45 12.6
2011-05-23 07:10:52 51°16.38 2°54.247 330.6 1 45 12.7
2011-05-23 07:10:57 51°16.381 2°54.248 330.8 1 49 12.8
2011-05-23 07:11:02 51°16.382 2°54.25 331.1 0.9 50 12.7
2011-05-23 07:11:07 51°16.383 2°54.251 331.2 0.8 50 12.5
2011-05-23 07:11:12 51°16.384 2°54.253 331.6 0.9 49 12.5
2011-05-23 07:11:17 51°16.384 2°54.254 331.6 0.9 46 12.7
2011-05-23 07:11:22 51°16.385 2°54.256 331.3 0.9 48 12.7
2011-05-23 07:11:27 51°16.386 2°54.257 331.2 0.9 48 12.8
2011-05-23 07:11:32 51°16.387 2°54.259 331.2 1 49 12.8
2011-05-23 07:11:37 51°16.388 2°54.261 331.2 0.9 49 12.7
2011-05-23 07:11:42 51°16.388 2°54.262 331.1 0.9 47 12.5
2011-05-23 07:11:47 51°16.389 2°54.264 331.2 1 49 12.7
2011-05-23 07:11:52 51°16.39 2°54.265 331.3 1 51 12.7
2011-05-23 07:11:57 51°16.391 2°54.267 331.5 0.9 54 12.8
2011-05-23 07:12:02 51°16.392 2°54.269 332 1 52 12.7
2011-05-23 07:12:07 51°16.393 2°54.27 332 1 52 12.8
2011-05-23 07:12:12 51°16.393 2°54.272 332.2 0.9 50 12.7
2011-05-23 07:12:17 51°16.394 2°54.274 332.3 0.9 49 12.6
2011-05-23 07:12:21 51°16.395 2°54.275 332.3 0.9 51 12.6
2011-05-23 07:12:27 51°16.396 2°54.277 332.3 0.9 52 12.8
2011-05-23 07:12:32 51°16.396 2°54.279 332.4 0.9 52 12.8
2011-05-23 07:12:37 51°16.397 2°54.28 332.5 0.9 52 12.8
2011-05-23 07:12:41 51°16.398 2°54.281 332.6 0.9 50 12.7
2011-05-23 07:12:47 51°16.399 2°54.282 332.8 0.9 50 12.6
2011-05-23 07:12:52 51°16.4 2°54.284 332.9 0.9 52 12.6
2011-05-23 07:12:57 51°16.401 2°54.286 333 0.9 52 12.7
2011-05-23 07:13:02 51°16.401 2°54.288 333.3 0.9 51 12.7
2011-05-23 07:13:07 51°16.402 2°54.289 333.3 0.9 51 12.8
2011-05-23 07:13:12 51°16.403 2°54.291 333.5 0.9 50 12.9
2011-05-23 07:13:17 51°16.404 2°54.292 333.5 0.9 53 12.7
2011-05-23 07:13:22 51°16.405 2°54.294 333.8 0.9 50 12.6
2011-05-23 07:13:27 51°16.406 2°54.295 334 0.9 51 12.6
2011-05-23 07:13:32 51°16.406 2°54.297 334 1 49 12.7
2011-05-23 07:13:37 51°16.407 2°54.299 334 0.9 53 12.9
2011-05-23 07:13:42 51°16.408 2°54.3 334 0.9 53 12.9
2011-05-23 07:13:47 51°16.409 2°54.302 334 0.9 51 12.7
2011-05-23 07:13:53 51°16.41 2°54.304 334.5 1 49 12.6
2011-05-23 07:13:57 51°16.411 2°54.305 334.7 0.9 47 12.6
2011-05-23 07:14:01 51°16.411 2°54.306 334.7 0.9 53 12.6
2011-05-23 07:14:07 51°16.412 2°54.308 335 0.8 50 12.5
2011-05-23 07:14:13 51°16.413 2°54.31 335 0.9 52 12.5
2011-05-23 07:14:17 51°16.414 2°54.311 334.9 0.9 50 12.7
2011-05-23 07:14:21 51°16.414 2°54.312 334.7 1 51 12.8
2011-05-23 07:14:27 51°16.415 2°54.314 334.7 0.9 49 12.8
2011-05-23 07:14:32 51°16.416 2°54.316 334.3 1 49 12.8
2011-05-23 07:14:37 51°16.417 2°54.317 334 0.9 48 12.6
2011-05-23 07:14:42 51°16.418 2°54.319 334 1 49 12.6
2011-05-23 07:14:47 51°16.419 2°54.321 333.9 1 48 12.8
2011-05-23 07:14:52 51°16.42 2°54.322 333.5 0.9 48 12.7
2011-05-23 07:14:57 51°16.421 2°54.323 333.6 0.9 46 12.7
2011-05-23 07:15:02 51°16.422 2°54.325 333.5 1 48 12.7
2011-05-23 07:15:07 51°16.422 2°54.327 333.3 0.9 46 12.8
2011-05-23 07:15:12 51°16.423 2°54.328 333 0.9 46 12.7
2011-05-23 07:15:17 51°16.424 2°54.33 332.5 0.9 46 12.7
2011-05-23 07:15:22 51°16.425 2°54.331 332.5 0.9 46 12.6
2011-05-23 07:15:27 51°16.426 2°54.332 332.2 0.9 43 12.6
2011-05-23 07:15:33 51°16.427 2°54.334 331.7 0.9 46 12.5
2011-05-23 07:15:37 51°16.428 2°54.335 331.4 0.9 45 12.7
2011-05-23 07:15:41 51°16.428 2°54.336 331 0.9 46 12.7
2011-05-23 07:15:47 51°16.429 2°54.338 330.6 0.8 46 12.4
2011-05-23 07:15:52 51°16.43 2°54.339 330.3 0.9 45 12.6
2011-05-23 07:15:57 51°16.431 2°54.34 330 0.9 41 12.6
2011-05-23 07:16:02 51°16.432 2°54.341 329.6 1 31 12.5
2011-05-23 07:16:07 51°16.434 2°54.342 329.7 1.4 14 12.8
2011-05-23 07:16:12 51°16.436 2°54.342 329.6 1.6 359 12.7
2011-05-23 07:16:17 51°16.438 2°54.342 330.1 1.8 358 12.6
2011-05-23 07:16:22 51°16.441 2°54.342 332.5 2.1 353 12.6
2011-05-23 07:16:27 51°16.444 2°54.341 335.2 2.3 352 12.6
2011-05-23 07:16:32 51°16.448 2°54.34 338.6 2.6 351 12.7
2011-05-23 07:16:37 51°16.452 2°54.34 342.4 2.8 354 12.6
2011-05-23 07:16:42 51°16.456 2°54.339 346.4 3 357 12.6
2011-05-23 07:16:47 51°16.46 2°54.339 351 3.2 359 12.6
2011-05-23 07:16:52 51°16.465 2°54.34 355 3.5 3 12.7
2011-05-23 07:16:57 51°16.47 2°54.341 0.9 3.6 6 12.6
2011-05-23 07:17:02 51°16.475 2°54.342 6.2 3.9 10 12.7
2011-05-23 07:17:07 51°16.481 2°54.344 10.3 4 13 12.7
2011-05-23 07:17:12 51°16.486 2°54.346 13.2 4.1 14 12.6
2011-05-23 07:17:17 51°16.492 2°54.347 12.4 4.1 10 12.8
2011-05-23 07:17:21 51°16.496 2°54.348 7.8 4 6 12.7
2011-05-23 07:17:27 51°16.503 2°54.349 2.4 4 -999 12.8
2011-05-23 07:17:33 51°16.51 2°54.348 356.5 4 355 12.8
2011-05-23 07:17:37 51°16.514 2°54.346 350.4 4 351 12.6
2011-05-23 07:17:41 51°16.518 2°54.345 345.6 4 345 13
2011-05-23 07:17:47 51°16.525 2°54.342 338.3 3.9 340 12.5
2011-05-23 07:17:52 51°16.53 2°54.338 333.8 4 336 12.8
2011-05-23 07:17:57 51°16.535 2°54.334 328.9 4.1 331 13
2011-05-23 07:18:02 51°16.54 2°54.328 323.8 4.6 327 12.8
2011-05-23 07:18:07 51°16.546 2°54.321 320 5.2 321 12.7
2011-05-23 07:18:12 51°16.551 2°54.313 316.7 5.8 317 12.7
2011-05-23 07:18:17 51°16.557 2°54.303 312.6 6.2 313 12.7
2011-05-23 07:18:22 51°16.563 2°54.292 308.8 6.7 309 12.8
2011-05-23 07:18:27 51°16.569 2°54.279 304.9 7.3 305 12.7
2011-05-23 07:18:32 51°16.575 2°54.264 301 7.9 302 12.9
2011-05-23 07:18:37 51°16.581 2°54.249 298 8.4 300 12.6
2011-05-23 07:18:42 51°16.587 2°54.232 297.7 8.8 302 12.8
2011-05-23 07:18:47 51°16.594 2°54.215 299.1 9.4 302 13
2011-05-23 07:18:52 51°16.601 2°54.197 299.5 9.7 302 12.7
2011-05-23 07:18:57 51°16.609 2°54.178 300.2 9.9 303 13
2011-05-23 07:19:02 51°16.617 2°54.159 300.7 10.3 303 12.6
2011-05-23 07:19:07 51°16.624 2°54.14 300.8 10.5 303 12.8
2011-05-23 07:19:12 51°16.632 2°54.12 300.9 10.8 303 12.8
2011-05-23 07:19:17 51°16.641 2°54.1 301 11 303 12.9
2011-05-23 07:19:22 51°16.649 2°54.079 301.1 11.2 303 12.5
2011-05-23 07:19:27 51°16.658 2°54.058 301.3 11.4 303 12.6
2011-05-23 07:19:32 51°16.666 2°54.036 301.2 11.6 303 12.7
2011-05-23 07:19:37 51°16.675 2°54.014 300.8 11.8 303 12.7
2011-05-23 07:19:41 51°16.682 2°53.996 300.5 12.1 301 12.8
2011-05-23 07:19:47 51°16.693 2°53.968 299.7 12.3 301 12.7
2011-05-23 07:19:53 51°16.703 2°53.94 299.1 12.4 299 12.8
2011-05-23 07:19:57 51°16.709 2°53.92 298 12.5 298 12.7
2011-05-23 07:20:02 51°16.717 2°53.895 297.1 12.6 297 12.5
2011-05-23 07:20:07 51°16.725 2°53.87 296.5 12.7 297 12.8
2011-05-23 07:20:12 51°16.733 2°53.845 296.2 12.7 297 12.6
2011-05-23 07:20:17 51°16.741 2°53.82 296 12.8 296 12.7
2011-05-23 07:20:22 51°16.749 2°53.794 295.6 12.9 297 12.5
2011-05-23 07:20:27 51°16.757 2°53.769 295.9 12.8 296 12.5
2011-05-23 07:20:32 51°16.765 2°53.744 296 12.9 297 12.6
2011-05-23 07:20:37 51°16.773 2°53.718 296.4 12.9 298 12.5
2011-05-23 07:20:42 51°16.782 2°53.693 296.7 13 298 12.3
2011-05-23 07:20:47 51°16.791 2°53.668 297.2 13 299 12.2
2011-05-23 07:20:53 51°16.801 2°53.638 297.7 13 299 12.5
2011-05-23 07:20:57 51°16.808 2°53.617 297.7 13 299 12.2
2011-05-23 07:21:02 51°16.817 2°53.592 297.5 13 298 12.3
2011-05-23 07:21:07 51°16.825 2°53.567 297 13 299 12.4
2011-05-23 07:21:12 51°16.834 2°53.543 297.4 12.9 300 12.2
2011-05-23 07:21:17 51°16.844 2°53.518 299.1 12.9 302 12.1
2011-05-23 07:21:21 51°16.851 2°53.499 300.3 12.9 302 12.1
2011-05-23 07:21:27 51°16.863 2°53.47 301.3 12.8 304 11.9
2011-05-23 07:21:32 51°16.873 2°53.447 302.5 12.9 305 11.9
2011-05-23 07:21:37 51°16.884 2°53.424 303.5 12.9 306 11.5
2011-05-23 07:21:42 51°16.894 2°53.401 304.1 12.9 306 11.1
2011-05-23 07:21:47 51°16.905 2°53.378 304.9 12.9 308 10.5
2011-05-23 07:21:52 51°16.916 2°53.356 305.9 12.8 308 9.9
2011-05-23 07:21:57 51°16.927 2°53.334 306.4 12.7 309 9.8
2011-05-23 07:22:02 51°16.938 2°53.312 306.6 12.7 308 9.7
2011-05-23 07:22:07 51°16.949 2°53.29 306.9 12.7 308 9.4
2011-05-23 07:22:12 51°16.959 2°53.268 306.4 12.6 306 9.3
2011-05-23 07:22:17 51°16.969 2°53.244 304.8 12.6 304 9.4
2011-05-23 07:22:22 51°16.979 2°53.221 303.5 12.7 304 9.3
2011-05-23 07:22:27 51°16.989 2°53.198 302 12.7 303 9.2
2011-05-23 07:22:32 51°16.998 2°53.174 301.4 12.8 303 9.5
2011-05-23 07:22:37 51°17.008 2°53.15 300.8 12.8 301 9.7
2011-05-23 07:22:42 51°17.017 2°53.126 300.1 12.8 301 9.6
2011-05-23 07:22:47 51°17.026 2°53.101 299.3 12.8 299 9.7
2011-05-23 07:22:53 51°17.036 2°53.071 298.4 12.9 299 9.9
2011-05-23 07:22:57 51°17.043 2°53.051 297.5 12.9 298 10
2011-05-23 07:23:02 51°17.051 2°53.026 296.9 12.9 298 9.8
2011-05-23 07:23:07 51°17.06 2°53.001 296.5 12.9 298 10.1
2011-05-23 07:23:12 51°17.068 2°52.976 296.2 12.9 298 10.2
2011-05-23 07:23:17 51°17.076 2°52.95 296.1 12.9 297 10.5
2011-05-23 07:23:22 51°17.085 2°52.925 296 12.9 298 10.5
2011-05-23 07:23:27 51°17.093 2°52.9 296.1 12.9 298 10.7
2011-05-23 07:23:32 51°17.102 2°52.875 296.2 13 299 11
2011-05-23 07:23:37 51°17.11 2°52.849 296.7 13 298 10.8
2011-05-23 07:23:42 51°17.119 2°52.824 297 12.9 299 10.8
2011-05-23 07:23:47 51°17.127 2°52.799 297.3 13 298 11.3
2011-05-23 07:23:52 51°17.136 2°52.773 297.3 13 298 11.2
2011-05-23 07:23:57 51°17.145 2°52.748 297.7 13 299 11.1
2011-05-23 07:24:02 51°17.153 2°52.723 297.9 13 300 10.9
2011-05-23 07:24:07 51°17.163 2°52.698 298.7 13 300 11.3
2011-05-23 07:24:12 51°17.172 2°52.674 299.1 13 301 11
2011-05-23 07:24:17 51°17.181 2°52.649 299.8 13 302 10.9
2011-05-23 07:24:22 51°17.191 2°52.625 300.6 13 303 10.9
2011-05-23 07:24:27 51°17.201 2°52.601 301.4 13 303 11.1
2011-05-23 07:24:33 51°17.213 2°52.572 301.9 13 303 10.9
2011-05-23 07:24:37 51°17.22 2°52.553 302.1 13.1 304 11.3
2011-05-23 07:24:41 51°17.229 2°52.533 302.3 13 304 11
2011-05-23 07:24:47 51°17.241 2°52.505 302.7 13.1 304 11.3
2011-05-23 07:24:52 51°17.251 2°52.481 303 13 305 11.3
2011-05-23 07:24:57 51°17.261 2°52.457 303.4 13 305 11.4
2011-05-23 07:25:02 51°17.272 2°52.434 304.7 13 307 11.3
2011-05-23 07:25:07 51°17.283 2°52.412 307.1 13.1 309 11.6
2011-05-23 07:25:12 51°17.295 2°52.39 308.6 13.1 311 11.5
2011-05-23 07:25:17 51°17.307 2°52.368 310.5 13.1 312 11.6
2011-05-23 07:25:22 51°17.32 2°52.347 312.4 13.1 314 11.4
2011-05-23 07:25:27 51°17.333 2°52.327 314.4 13.1 316 11.7
2011-05-23 07:25:33 51°17.349 2°52.303 315.5 13.2 316 11.7
2011-05-23 07:25:37 51°17.359 2°52.287 316.2 13.2 317 11.6
2011-05-23 07:25:42 51°17.373 2°52.267 317.2 13.3 318 12
2011-05-23 07:25:47 51°17.387 2°52.248 317.7 13.3 319 12.1
2011-05-23 07:25:52 51°17.401 2°52.228 318.2 13.3 318 12.4
2011-05-23 07:25:57 51°17.414 2°52.208 318.2 13.4 318 12.3
2011-05-23 07:26:01 51°17.425 2°52.193 318 13.4 317 12.7
2011-05-23 07:26:07 51°17.442 2°52.168 317.2 13.3 317 12.3
2011-05-23 07:26:12 51°17.455 2°52.148 316.9 13.2 318 12.3
2011-05-23 07:26:17 51°17.469 2°52.129 317.1 13.3 317 12.5
2011-05-23 07:26:21 51°17.48 2°52.113 317.3 13.3 318 12.6
2011-05-23 07:26:27 51°17.496 2°52.089 317.3 13.3 318 12.5
2011-05-23 07:26:32 51°17.51 2°52.069 317.5 13.3 317 12.6
2011-05-23 07:26:37 51°17.523 2°52.049 317.3 13.3 317 12.1
2011-05-23 07:26:42 51°17.536 2°52.029 317.1 13.2 317 12.2
2011-05-23 07:26:47 51°17.55 2°52.01 316.8 13.2 316 11.9
2011-05-23 07:26:52 51°17.563 2°51.99 316.4 13.2 317 11.6
2011-05-23 07:26:57 51°17.576 2°51.969 316.4 13.2 316 11.6
2011-05-23 07:27:02 51°17.589 2°51.949 316.1 13.2 316 11.5
2011-05-23 07:27:07 51°17.602 2°51.928 315.6 13.1 315 11.3
2011-05-23 07:27:12 51°17.615 2°51.908 314.7 13.1 315 11.4
2011-05-23 07:27:17 51°17.628 2°51.887 314.4 13.1 314 11.7
2011-05-23 07:27:22 51°17.64 2°51.866 313.9 13.1 314 11.5
2011-05-23 07:27:27 51°17.653 2°51.845 313.3 13.2 314 11.5
2011-05-23 07:27:32 51°17.665 2°51.824 313.1 13.2 314 11.1
2011-05-23 07:27:37 51°17.678 2°51.802 313.1 13.1 314 11.2
2011-05-23 07:27:42 51°17.691 2°51.781 313 13.1 314 11.1
2011-05-23 07:27:47 51°17.703 2°51.759 312.9 13.2 314 11.2
2011-05-23 07:27:53 51°17.718 2°51.734 313.5 13.2 314 11.3
2011-05-23 07:27:57 51°17.729 2°51.719 314.4 13.2 316 11.2
2011-05-23 07:28:01 51°17.74 2°51.703 316 13.2 317 11.1
2011-05-23 07:28:07 51°17.756 2°51.679 317.2 13.2 318 11
2011-05-23 07:28:12 51°17.77 2°51.66 318.4 13.2 320 11.1
2011-05-23 07:28:17 51°17.784 2°51.642 320 13.2 322 11.6
2011-05-23 07:28:21 51°17.796 2°51.627 320.8 13.2 321 11.3
2011-05-23 07:28:27 51°17.813 2°51.606 321.3 13.2 322 11.4
2011-05-23 07:28:32 51°17.828 2°51.588 321.8 13.3 323 11.6
2011-05-23 07:28:37 51°17.842 2°51.57 322.4 13.3 322 11.1
2011-05-23 07:28:42 51°17.857 2°51.552 322.3 13.2 323 10.9
2011-05-23 07:28:47 51°17.871 2°51.534 322.4 13.2 322 11.3
2011-05-23 07:28:52 51°17.886 2°51.516 322 13.2 322 11.6
2011-05-23 07:28:57 51°17.9 2°51.498 321.6 13.3 322 12
2011-05-23 07:29:02 51°17.914 2°51.48 321.3 13.2 321 11.5
2011-05-23 07:29:07 51°17.929 2°51.462 321.3 13.3 321 11.9
2011-05-23 07:29:12 51°17.943 2°51.443 320.9 13.2 321 11.8
2011-05-23 07:29:17 51°17.957 2°51.424 320.5 13.2 321 11.9
2011-05-23 07:29:22 51°17.971 2°51.405 320.4 13.2 320 12.2
2011-05-23 07:29:27 51°17.985 2°51.387 320.2 13.3 320 12
2011-05-23 07:29:32 51°17.999 2°51.368 319.9 13.3 319 12.2
2011-05-23 07:29:37 51°18.013 2°51.348 319.4 13.3 320 12.4
2011-05-23 07:29:42 51°18.027 2°51.329 318.7 13.3 318 12.4
2011-05-23 07:29:47 51°18.042 2°51.31 318.7 13.3 319 12.7
2011-05-23 07:29:53 51°18.058 2°51.287 318 13.3 318 12.6
2011-05-23 07:29:57 51°18.069 2°51.271 317.9 13.3 319 12.8
2011-05-23 07:30:01 51°18.08 2°51.255 318 13.3 319 13
2011-05-23 07:30:07 51°18.097 2°51.232 318 13.3 319 12.9
2011-05-23 07:30:13 51°18.114 2°51.209 318.6 13.3 319 13.2
2011-05-23 07:30:17 51°18.125 2°51.194 318.7 13.3 319 13.2
2011-05-23 07:30:21 51°18.136 2°51.178 319 13.2 320 13.2
2011-05-23 07:30:27 51°18.153 2°51.156 318.9 13.2 320 13.3
2011-05-23 07:30:32 51°18.167 2°51.136 319 13.3 319 13.7
2011-05-23 07:30:37 51°18.18 2°51.117 319 13.2 319 13.6
2011-05-23 07:30:42 51°18.194 2°51.098 318.7 13.3 319 13.7
2011-05-23 07:30:47 51°18.208 2°51.078 318.5 13.3 318 13.6
2011-05-23 07:30:52 51°18.222 2°51.058 318.3 13.3 318 13.8
2011-05-23 07:30:57 51°18.235 2°51.039 317.8 13.3 318 13.7
2011-05-23 07:31:02 51°18.249 2°51.019 317.8 13.3 319 14.1
2011-05-23 07:31:07 51°18.263 2°51.001 318.9 13.2 320 13.9
2011-05-23 07:31:12 51°18.278 2°50.983 320.8 13.3 324 14.2
2011-05-23 07:31:17 51°18.293 2°50.966 323.5 13.3 325 14.3
2011-05-23 07:31:22 51°18.308 2°50.95 325.4 13.3 327 14.5
2011-05-23 07:31:27 51°18.324 2°50.934 327.1 13.3 328 14.2
2011-05-23 07:31:32 51°18.339 2°50.92 328.6 12.3 329 14.3
2011-05-23 07:31:37 51°18.353 2°50.907 329.6 11.5 331 14.8
2011-05-23 07:31:41 51°18.364 2°50.899 330.8 10.4 333 14.6
2011-05-23 07:31:47 51°18.378 2°50.887 332 9.6 335 14.9
2011-05-23 07:31:53 51°18.392 2°50.878 333.7 8.7 337 14.7
2011-05-23 07:31:57 51°18.401 2°50.872 336.2 8.2 338 14.8
2011-05-23 07:32:02 51°18.41 2°50.867 338.7 7.4 341 14.8
2011-05-23 07:32:07 51°18.419 2°50.863 341.2 6.6 344 15
2011-05-23 07:32:12 51°18.427 2°50.859 343.7 6 346 14.9
2011-05-23 07:32:17 51°18.435 2°50.856 346.5 5.6 347 14.9
2011-05-23 07:32:22 51°18.442 2°50.855 348.7 5.1 350 14.8
2011-05-23 07:32:27 51°18.448 2°50.853 350.8 4.5 352 14.9
2011-05-23 07:32:32 51°18.454 2°50.852 352.8 3.9 356 15
2011-05-23 07:32:37 51°18.458 2°50.852 355.7 3.5 357 15.2
2011-05-23 07:32:42 51°18.463 2°50.852 358 3.1 -999 15
2011-05-23 07:32:47 51°18.466 2°50.852 359.8 2.7 3 15.1
2011-05-23 07:32:52 51°18.469 2°50.852 358.9 2.1 3 15.3
2011-05-23 07:32:57 51°18.472 2°50.852 357.4 1.8 4 15.2
2011-05-23 07:33:02 51°18.474 2°50.853 355.7 1.3 3 15.2
2011-05-23 07:33:07 51°18.475 2°50.853 354.9 1.1 19 15.2
2011-05-23 07:33:12 51°18.476 2°50.854 354.3 0.8 24 15.2
2011-05-23 07:33:17 51°18.477 2°50.855 353.6 0.6 29 15.3
2011-05-23 07:33:22 51°18.478 2°50.856 353.2 0.5 39 15.1
2011-05-23 07:33:27 51°18.478 2°50.857 352.5 0.6 41 15
2011-05-23 07:33:32 51°18.479 2°50.858 352.7 0.7 44 15
2011-05-23 07:33:37 51°18.48 2°50.859 352.8 0.7 40 15
2011-05-23 07:33:41 51°18.48 2°50.859 352.5 0.7 43 14.9
2011-05-23 07:33:47 51°18.481 2°50.861 352.8 0.8 45 15.2
2011-05-23 07:33:53 51°18.482 2°50.862 353.2 0.8 41 15.4
2011-05-23 07:33:57 51°18.483 2°50.863 353.4 0.8 40 15.2
2011-05-23 07:34:02 51°18.484 2°50.864 353.5 0.8 34 15
2011-05-23 07:34:07 51°18.485 2°50.865 353.5 0.8 36 15.1
2011-05-23 07:34:12 51°18.486 2°50.867 354.2 0.9 37 15.1
2011-05-23 07:34:17 51°18.486 2°50.868 354.2 1 44 15.3
2011-05-23 07:34:22 51°18.487 2°50.869 353.8 0.8 34 15.1
2011-05-23 07:34:27 51°18.488 2°50.87 354.1 0.9 41 15.1
2011-05-23 07:34:32 51°18.489 2°50.871 354.2 0.8 33 15.1
2011-05-23 07:34:37 51°18.49 2°50.872 353.6 0.9 40 15.1
2011-05-23 07:34:42 51°18.491 2°50.873 353.6 0.9 36 14.9
2011-05-23 07:34:47 51°18.492 2°50.875 353.5 0.9 37 14.8
2011-05-23 07:34:52 51°18.493 2°50.876 353.2 0.9 37 15.1
2011-05-23 07:34:57 51°18.494 2°50.877 353.3 0.9 35 15.2
2011-05-23 07:35:02 51°18.495 2°50.878 353.1 0.9 37 15.1
2011-05-23 07:35:07 51°18.496 2°50.88 352.7 0.9 33 15.3
2011-05-23 07:35:12 51°18.497 2°50.88 352.1 0.9 34 15.3
2011-05-23 07:35:17 51°18.498 2°50.882 351.7 0.9 33 15.1
2011-05-23 07:35:21 51°18.499 2°50.882 351.2 0.9 31 15
2011-05-23 07:35:27 51°18.501 2°50.884 350.9 0.9 29 15
2011-05-23 07:35:33 51°18.502 2°50.885 350.2 0.9 32 15.1
2011-05-23 07:35:37 51°18.503 2°50.886 349.4 0.9 32 15.2
2011-05-23 07:35:41 51°18.504 2°50.886 349.1 0.9 31 15.1
2011-05-23 07:35:47 51°18.505 2°50.888 348 0.9 33 15.2
2011-05-23 07:35:52 51°18.506 2°50.889 347.4 0.8 26 15.1
2011-05-23 07:35:57 51°18.507 2°50.89 346.7 0.9 33 15
2011-05-23 07:36:02 51°18.508 2°50.891 345.6 0.9 29 15.3
2011-05-23 07:36:07 51°18.509 2°50.892 344.6 1 33 15.6
2011-05-23 07:36:12 51°18.51 2°50.893 343.9 1 33 15.3
2011-05-23 07:36:17 51°18.511 2°50.894 343.3 0.9 30 15.2
2011-05-23 07:36:22 51°18.512 2°50.895 343 0.9 32 15
2011-05-23 07:36:27 51°18.513 2°50.896 342.5 0.9 28 15
2011-05-23 07:36:32 51°18.514 2°50.897 341.9 1 31 15.1
2011-05-23 07:36:37 51°18.515 2°50.898 341.1 0.9 29 15.1
2011-05-23 07:36:42 51°18.516 2°50.899 340.5 0.9 37 15.1
2011-05-23 07:36:47 51°18.517 2°50.9 340.3 0.8 33 15.2
2011-05-23 07:36:52 51°18.518 2°50.901 340.3 0.9 36 15.3
2011-05-23 07:36:57 51°18.519 2°50.902 339.6 0.9 33 15.3
2011-05-23 07:37:01 51°18.52 2°50.903 338.9 1 31 14.9
2011-05-23 07:37:07 51°18.521 2°50.904 338.7 0.9 31 14.9
2011-05-23 07:37:12 51°18.522 2°50.905 338.7 0.9 29 15.3
2011-05-23 07:37:17 51°18.523 2°50.906 338.5 0.8 28 15.1
2011-05-23 07:37:21 51°18.524 2°50.907 338.2 0.9 31 15.1
2011-05-23 07:37:27 51°18.525 2°50.908 337.8 0.8 29 15.2
2011-05-23 07:37:32 51°18.527 2°50.909 337.4 0.9 32 15.3
2011-05-23 07:37:37 51°18.528 2°50.91 337 0.8 27 15.3
2011-05-23 07:37:42 51°18.529 2°50.911 336.4 0.7 25 14.9
2011-05-23 07:37:47 51°18.53 2°50.912 336.1 0.8 31 15.2
2011-05-23 07:37:52 51°18.531 2°50.913 335.9 0.8 28 15.3
2011-05-23 07:37:57 51°18.532 2°50.913 335.4 0.9 28 15
2011-05-23 07:38:02 51°18.532 2°50.914 335.3 0.8 27 15.1
2011-05-23 07:38:07 51°18.533 2°50.915 335 0.8 30 15.2
2011-05-23 07:38:12 51°18.534 2°50.916 334.9 0.8 28 15.3
2011-05-23 07:38:17 51°18.535 2°50.916 334.7 0.7 25 15.3
2011-05-23 07:38:22 51°18.536 2°50.917 334.2 0.7 26 15.1
2011-05-23 07:38:27 51°18.537 2°50.918 333.9 0.8 26 15
2011-05-23 07:38:32 51°18.538 2°50.919 333.5 0.8 28 15.1
2011-05-23 07:38:37 51°18.539 2°50.92 333 0.7 25 15.1
2011-05-23 07:38:42 51°18.54 2°50.921 332.6 0.8 26 15.3
2011-05-23 07:38:47 51°18.541 2°50.921 332.3 0.8 25 15.2
2011-05-23 07:38:53 51°18.542 2°50.922 331.8 0.8 29 15
2011-05-23 07:38:57 51°18.543 2°50.923 331.4 0.8 27 15.1
2011-05-23 07:39:01 51°18.544 2°50.924 331.1 0.9 32 15.2
2011-05-23 07:39:07 51°18.545 2°50.925 331.1 0.9 30 15.4
2011-05-23 07:39:12 51°18.546 2°50.926 330.7 0.9 32 15.2
2011-05-23 07:39:17 51°18.547 2°50.927 330.4 0.9 29 15
2011-05-23 07:39:21 51°18.548 2°50.928 330.5 0.9 29 15
2011-05-23 07:39:27 51°18.549 2°50.929 330.1 0.9 28 15.2
2011-05-23 07:39:32 51°18.55 2°50.93 329.6 0.9 33 15.5
2011-05-23 07:39:37 51°18.551 2°50.931 329.2 0.7 27 15.1
2011-05-23 07:39:42 51°18.552 2°50.932 328.9 0.9 32 15.1
2011-05-23 07:39:47 51°18.553 2°50.933 328.6 0.9 29 15.5
2011-05-23 07:39:52 51°18.554 2°50.934 327.9 0.8 28 15.3
2011-05-23 07:39:57 51°18.555 2°50.934 327.6 0.8 26 14.9
2011-05-23 07:40:02 51°18.556 2°50.935 327.7 0.9 37 15.1
2011-05-23 07:40:07 51°18.557 2°50.937 327.8 0.9 28 15.5
2011-05-23 07:40:12 51°18.558 2°50.938 327.7 0.9 31 15.2
2011-05-23 07:40:17 51°18.559 2°50.939 327.6 0.9 33 15.2
2011-05-23 07:40:22 51°18.56 2°50.94 327.8 0.8 33 15.3
2011-05-23 07:40:27 51°18.561 2°50.941 327.8 0.8 28 15.2
2011-05-23 07:40:32 51°18.562 2°50.942 327.6 0.9 34 15.3
2011-05-23 07:40:37 51°18.563 2°50.943 327.3 0.8 33 15.5
2011-05-23 07:40:41 51°18.564 2°50.943 327.4 0.8 28 15.1
2011-05-23 07:40:47 51°18.565 2°50.945 327.3 0.9 31 15
2011-05-23 07:40:53 51°18.566 2°50.946 327.1 0.9 32 15.2
2011-05-23 07:40:57 51°18.567 2°50.946 327 0.8 28 15
2011-05-23 07:41:02 51°18.568 2°50.947 326.9 0.8 33 15.2
2011-05-23 07:41:07 51°18.569 2°50.948 326.8 0.8 34 15.3
2011-05-23 07:41:12 51°18.57 2°50.949 327 0.8 31 15.2
2011-05-23 07:41:17 51°18.571 2°50.95 327 0.9 32 15.2
2011-05-23 07:41:22 51°18.572 2°50.952 326.8 0.9 33 15.1
2011-05-23 07:41:27 51°18.573 2°50.953 327.2 0.8 38 15.2
2011-05-23 07:41:32 51°18.574 2°50.954 328.2 0.8 39 15.1
2011-05-23 07:41:37 51°18.575 2°50.955 328.7 0.7 36 15.1
2011-05-23 07:41:42 51°18.576 2°50.956 329 0.7 37 15.1
2011-05-23 07:41:47 51°18.576 2°50.957 329.4 0.7 36 14.9
2011-05-23 07:41:52 51°18.577 2°50.958 329.6 0.8 40 15.2
2011-05-23 07:41:57 51°18.578 2°50.959 329.7 0.7 33 15.1
2011-05-23 07:42:02 51°18.579 2°50.96 329.8 0.9 43 15.4
2011-05-23 07:42:07 51°18.58 2°50.961 330.3 0.7 34 15.2
2011-05-23 07:42:12 51°18.581 2°50.962 330.8 0.9 37 15.2
2011-05-23 07:42:17 51°18.582 2°50.963 331.3 0.8 34 15.1
2011-05-23 07:42:21 51°18.582 2°50.964 331.6 0.9 35 15.1
2011-05-23 07:42:27 51°18.584 2°50.966 331.7 0.8 33 15.3
2011-05-23 07:42:32 51°18.585 2°50.967 331.7 0.8 33 15.1
2011-05-23 07:42:37 51°18.585 2°50.968 331.7 0.9 39 15.3
2011-05-23 07:42:42 51°18.586 2°50.969 331.7 0.8 38 15.5
2011-05-23 07:42:47 51°18.587 2°50.97 331.9 0.8 36 15.1
2011-05-23 07:42:52 51°18.588 2°50.971 332 0.8 35 15.2
2011-05-23 07:42:57 51°18.589 2°50.972 332.3 0.8 40 15.3
2011-05-23 07:43:02 51°18.59 2°50.973 332.5 0.7 36 15.3
2011-05-23 07:43:07 51°18.591 2°50.974 332.6 0.8 37 15.2
2011-05-23 07:43:12 51°18.592 2°50.975 333 0.8 35 15.1
2011-05-23 07:43:17 51°18.592 2°50.976 333 0.8 32 15.2
2011-05-23 07:43:22 51°18.593 2°50.977 332.8 0.8 34 15.2
2011-05-23 07:43:27 51°18.594 2°50.978 332.5 0.7 33 15.3
2011-05-23 07:43:33 51°18.595 2°50.979 332.3 0.8 35 15.3
2011-05-23 07:43:37 51°18.596 2°50.98 332 0.8 39 15.1
2011-05-23 07:43:42 51°18.597 2°50.981 332.1 0.9 39 15.3
2011-05-23 07:43:47 51°18.598 2°50.982 332.3 0.9 39 15.2